createdAt,value
2023-01-15T00:01:23.349Z,98464.66
2023-01-15T00:04:28.619Z,98467.13
2023-01-15T00:07:33.311Z,98471.34
2023-01-15T00:10:38.556Z,98466.34
2023-01-15T00:13:44.272Z,98463.84
2023-01-15T00:16:47.803Z,98454.00
2023-01-15T00:19:53.552Z,98458.63
2023-01-15T00:22:57.243Z,98463.16
2023-01-15T00:26:18.335Z,98464.78
2023-01-15T00:29:24.100Z,98458.59
2023-01-15T00:32:29.912Z,98467.94
2023-01-15T00:35:39.212Z,98462.16
2023-01-15T00:38:43.564Z,98469.97
2023-01-15T00:41:47.281Z,98459.72
2023-01-15T00:44:52.489Z,98455.16
2023-01-15T00:47:57.359Z,98451.69
2023-01-15T00:51:02.560Z,98451.88
2023-01-15T00:54:07.313Z,98453.19
2023-01-15T00:57:12.219Z,98455.34
2023-01-15T01:00:16.494Z,98444.56
2023-01-15T01:03:20.719Z,98445.69
2023-01-15T01:06:27.051Z,98444.84
2023-01-15T01:09:31.301Z,98438.34
2023-01-15T01:12:34.779Z,98451.38
2023-01-15T01:15:39.336Z,98446.38
2023-01-15T01:18:42.924Z,98436.16
2023-01-15T01:21:49.309Z,98436.72
2023-01-15T01:24:53.180Z,98432.16
2023-01-15T01:27:57.009Z,98429.81
2023-01-15T01:31:01.229Z,98429.09
2023-01-15T01:34:05.183Z,98419.63
2023-01-15T01:37:10.295Z,98410.69
2023-01-15T01:40:14.781Z,98418.97
2023-01-15T01:43:21.719Z,98407.88
2023-01-15T01:46:27.510Z,98406.78
2023-01-15T01:49:32.539Z,98410.53
2023-01-15T01:52:43.837Z,98404.03
2023-01-15T01:55:48.057Z,98400.81
2023-01-15T01:58:56.453Z,98393.69
2023-01-15T02:02:01.877Z,98401.53
2023-01-15T02:05:09.157Z,98399.00
2023-01-15T02:08:15.023Z,98393.44
2023-01-15T02:11:22.880Z,98387.59
2023-01-15T02:14:36.324Z,98389.94
2023-01-15T02:17:48.053Z,98381.84
2023-01-15T02:20:56.242Z,98376.31
2023-01-15T02:24:08.898Z,98376.88
2023-01-15T02:27:17.963Z,98366.13
2023-01-15T02:30:29.823Z,98375.50
2023-01-15T02:33:39.679Z,98366.91
2023-01-15T02:36:48.992Z,98357.81
2023-01-15T02:40:02.801Z,98354.50
2023-01-15T02:43:14.511Z,98355.41
2023-01-15T02:46:21.156Z,98341.00
2023-01-15T02:49:25.906Z,98352.09
2023-01-15T02:52:37.195Z,98342.50
2023-01-15T02:55:45.849Z,98336.88
2023-01-15T02:58:56.360Z,98344.50
2023-01-15T03:02:06.638Z,98328.53
2023-01-15T03:05:16.950Z,98328.75
2023-01-15T03:08:23.722Z,98326.06
2023-01-15T03:11:28.521Z,98318.66
2023-01-15T03:14:43.368Z,98317.00
2023-01-15T03:17:54.293Z,98316.13
2023-01-15T03:21:05.162Z,98313.94
2023-01-15T03:24:13.193Z,98293.28
2023-01-15T03:27:18.637Z,98296.59
2023-01-15T03:30:30.450Z,98303.47
2023-01-15T03:33:36.640Z,98299.63
2023-01-15T03:36:44.438Z,98296.28
2023-01-15T03:39:49.290Z,98284.59
2023-01-15T03:43:20.891Z,98288.63
2023-01-15T03:46:42.806Z,98288.63
2023-01-15T03:49:57.986Z,98285.97
2023-01-15T03:53:20.461Z,98280.94
2023-01-15T03:56:43.766Z,98273.03
2023-01-15T03:59:53.255Z,98266.94
2023-01-15T04:03:00.422Z,98270.91
2023-01-15T04:06:08.822Z,98278.66
2023-01-15T04:09:15.999Z,98269.75
2023-01-15T04:12:22.031Z,98262.28
2023-01-15T04:15:25.705Z,98268.00
2023-01-15T04:18:30.949Z,98270.47
2023-01-15T04:21:35.206Z,98264.94
2023-01-15T04:24:42.295Z,98273.22
2023-01-15T04:27:45.768Z,98274.78
2023-01-15T04:30:49.755Z,98268.41
2023-01-15T04:33:55.103Z,98275.50
2023-01-15T04:36:59.469Z,98273.75
2023-01-15T04:40:02.950Z,98273.59
2023-01-15T04:43:25.362Z,98263.03
2023-01-15T04:46:29.152Z,98263.47
2023-01-15T04:49:34.927Z,98266.50
2023-01-15T04:52:38.932Z,98263.13
2023-01-15T04:55:43.206Z,98256.25
2023-01-15T04:58:46.657Z,98257.47
2023-01-15T05:02:03.275Z,98265.09
2023-01-15T05:05:11.702Z,98255.44
2023-01-15T05:08:16.387Z,98261.97
2023-01-15T05:11:20.507Z,98261.00
2023-01-15T05:14:24.415Z,98257.31
2023-01-15T05:17:27.975Z,98242.59
2023-01-15T05:20:37.857Z,98233.91
2023-01-15T05:23:41.291Z,98222.94
2023-01-15T05:26:46.615Z,98234.94
2023-01-15T05:29:50.437Z,98228.53
2023-01-15T05:32:55.085Z,98233.69
2023-01-15T05:36:04.365Z,98234.25
2023-01-15T05:39:09.070Z,98231.03
2023-01-15T05:42:12.856Z,98240.41
2023-01-15T05:45:16.899Z,98236.25
2023-01-15T05:48:20.509Z,98243.88
2023-01-15T05:51:25.987Z,98241.16
2023-01-15T05:54:31.538Z,98241.44
2023-01-15T05:57:36.077Z,98247.78
2023-01-15T06:00:39.676Z,98247.88
2023-01-15T06:03:43.795Z,98245.66
2023-01-15T06:06:52.887Z,98226.09
2023-01-15T06:09:57.851Z,98228.28
2023-01-15T06:13:01.460Z,98222.84
2023-01-15T06:16:08.024Z,98222.63
2023-01-15T06:19:14.592Z,98230.47
2023-01-15T06:22:20.104Z,98227.16
2023-01-15T06:25:23.555Z,98227.06
2023-01-15T06:28:27.709Z,98237.84
2023-01-15T06:31:32.721Z,98225.06
2023-01-15T06:34:43.336Z,98226.34
2023-01-15T06:37:50.309Z,98227.22
2023-01-15T06:40:54.411Z,98221.69
2023-01-15T06:44:15.568Z,98224.38
2023-01-15T06:47:24.763Z,98215.81
2023-01-15T06:50:28.625Z,98212.84
2023-01-15T06:53:34.128Z,98210.31
2023-01-15T06:56:46.407Z,98206.94
2023-01-15T06:59:50.859Z,98212.34
2023-01-15T07:02:54.474Z,98200.88
2023-01-15T07:05:58.303Z,98197.63
2023-01-15T07:09:03.304Z,98201.19
2023-01-15T07:12:07.941Z,98206.09
2023-01-15T07:15:12.341Z,98210.44
2023-01-15T07:18:16.109Z,98216.22
2023-01-15T07:21:19.691Z,98216.25
2023-01-15T07:24:24.992Z,98213.91
2023-01-15T07:27:28.476Z,98203.84
2023-01-15T07:30:32.389Z,98206.34
2023-01-15T07:33:35.900Z,98203.50
2023-01-15T07:36:39.968Z,98199.06
2023-01-15T07:39:45.080Z,98193.06
2023-01-15T07:43:07.276Z,98196.25
2023-01-15T07:46:30.017Z,98189.53
2023-01-15T07:49:49.796Z,98192.59
2023-01-15T07:52:54.221Z,98184.06
2023-01-15T07:56:01.638Z,98190.63
2023-01-15T07:59:05.127Z,98179.53
2023-01-15T08:02:09.469Z,98189.84
2023-01-15T08:05:14.322Z,98188.00
2023-01-15T08:08:18.935Z,98182.00
2023-01-15T08:11:41.212Z,98175.06
2023-01-15T08:15:02.771Z,98176.97
2023-01-15T08:18:07.380Z,98166.66
2023-01-15T08:21:15.457Z,98160.31
2023-01-15T08:24:19.212Z,98167.75
2023-01-15T08:27:24.400Z,98163.56
2023-01-15T08:30:28.339Z,98166.66
2023-01-15T08:33:47.859Z,98163.97
2023-01-15T08:37:13.165Z,98166.66
2023-01-15T08:40:17.591Z,98165.06
2023-01-15T08:43:22.403Z,98162.44
2023-01-15T08:46:26.298Z,98159.78
2023-01-15T08:49:30.309Z,98162.88
2023-01-15T08:52:34.439Z,98159.66
2023-01-15T08:55:38.975Z,98162.09
2023-01-15T08:58:44.342Z,98167.53
2023-01-15T09:01:48.321Z,98168.00
2023-01-15T09:04:52.960Z,98163.78
2023-01-15T09:07:56.568Z,98169.97
2023-01-15T09:11:01.149Z,98175.63
2023-01-15T09:14:06.011Z,98169.84
2023-01-15T09:17:10.913Z,98165.44
2023-01-15T09:20:15.649Z,98163.97
2023-01-15T09:23:19.641Z,98169.22
2023-01-15T09:26:29.780Z,98147.53
2023-01-15T09:29:34.859Z,98148.69
2023-01-15T09:32:38.323Z,98143.81
2023-01-15T09:35:43.520Z,98142.13
2023-01-15T09:38:47.508Z,98140.13
2023-01-15T09:42:08.537Z,98134.69
2023-01-15T09:45:21.774Z,98122.13
2023-01-15T09:48:39.554Z,98114.69
2023-01-15T09:51:53.953Z,98102.94
2023-01-15T09:55:04.764Z,98107.16
2023-01-15T09:58:12.963Z,98098.91
2023-01-15T10:01:22.005Z,98093.16
2023-01-15T10:04:37.129Z,98093.38
2023-01-15T10:07:47.621Z,98082.25
2023-01-15T10:10:56.701Z,98074.47
2023-01-15T10:14:07.408Z,98080.66
2023-01-15T10:17:22.574Z,98069.84
2023-01-15T10:20:43.131Z,98077.84
2023-01-15T10:23:58.164Z,98060.03
2023-01-15T10:27:12.589Z,98058.56
2023-01-15T10:30:19.635Z,98052.88
2023-01-15T10:33:51.199Z,98040.47
2023-01-15T10:37:00.146Z,98041.94
2023-01-15T10:40:24.458Z,98027.47
2023-01-15T10:43:43.922Z,98020.63
2023-01-15T10:46:57.021Z,98015.72
2023-01-15T10:50:05.129Z,98008.81
2023-01-15T10:53:17.616Z,98010.44
2023-01-15T10:56:32.584Z,97999.44
2023-01-15T10:59:42.433Z,97998.66
2023-01-15T11:02:51.805Z,97983.84
2023-01-15T11:05:57.087Z,97979.94
2023-01-15T11:09:10.912Z,97966.38
2023-01-15T11:12:40.488Z,97956.78
2023-01-15T11:16:05.651Z,97944.38
2023-01-15T11:19:40.051Z,97930.41
2023-01-15T11:22:45.607Z,97926.28
2023-01-15T11:25:52.005Z,97916.50
2023-01-15T11:28:57.228Z,97916.38
2023-01-15T11:32:01.767Z,97912.25
2023-01-15T11:35:16.713Z,97910.00
2023-01-15T11:38:23.735Z,97897.34
2023-01-15T11:41:51.605Z,97898.25
2023-01-15T11:45:14.479Z,97896.09
2023-01-15T11:48:37.154Z,97885.44
2023-01-15T11:51:45.410Z,97879.63
2023-01-15T11:54:53.961Z,97870.38
2023-01-15T11:58:00.843Z,97861.13
2023-01-15T12:01:04.502Z,97859.25
2023-01-15T12:04:24.117Z,97856.34
2023-01-15T12:07:27.963Z,97839.66
2023-01-15T12:10:57.254Z,97842.13
2023-01-15T12:14:22.256Z,97829.44
2023-01-15T12:17:39.891Z,97828.06
2023-01-15T12:20:55.957Z,97827.91
2023-01-15T12:24:15.624Z,97823.09
2023-01-15T12:27:35.347Z,97810.59
2023-01-15T12:30:49.255Z,97817.09
2023-01-15T12:33:57.771Z,97823.13
2023-01-15T12:37:08.130Z,97808.25
2023-01-15T12:40:21.855Z,97813.06
2023-01-15T12:43:46.423Z,97806.28
2023-01-15T12:46:51.007Z,97801.03
2023-01-15T12:50:01.681Z,97788.50
2023-01-15T12:53:14.808Z,97795.44
2023-01-15T12:56:26.140Z,97790.50
2023-01-15T12:59:38.740Z,97793.94
2023-01-15T13:03:03.167Z,97786.34
2023-01-15T13:06:09.254Z,97776.31
2023-01-15T13:09:29.325Z,97778.31
2023-01-15T13:12:32.768Z,97769.81
2023-01-15T13:15:43.513Z,97775.84
2023-01-15T13:18:57.709Z,97774.59
2023-01-15T13:22:21.988Z,97777.34
2023-01-15T13:25:49.023Z,97774.44
2023-01-15T13:29:06.647Z,97763.91
2023-01-15T13:32:16.980Z,97757.56
2023-01-15T13:35:31.549Z,97757.56
2023-01-15T13:38:43.139Z,97753.25
2023-01-15T13:42:08.730Z,97746.59
2023-01-15T13:45:28.884Z,97741.78
2023-01-15T13:48:37.611Z,97744.28
2023-01-15T13:51:43.685Z,97733.91
2023-01-15T13:54:47.930Z,97734.84
2023-01-15T13:57:51.353Z,97735.16
2023-01-15T14:01:08.979Z,97734.25
2023-01-15T14:04:16.825Z,97734.72
2023-01-15T14:07:23.627Z,97729.59
2023-01-15T14:10:36.300Z,97726.81
2023-01-15T14:14:12.940Z,97725.75
2023-01-15T14:17:42.721Z,97724.25
2023-01-15T14:21:16.819Z,97713.53
2023-01-15T14:24:48.545Z,97715.72
2023-01-15T14:28:13.133Z,97713.84
2023-01-15T14:31:31.401Z,97714.16
2023-01-15T14:34:37.375Z,97713.84
2023-01-15T14:37:51.820Z,97715.56
2023-01-15T14:41:00.847Z,97713.84
2023-01-15T14:44:04.713Z,97694.84
2023-01-15T14:47:24.838Z,97695.94
2023-01-15T14:50:38.069Z,97696.72
2023-01-15T14:53:47.055Z,97702.41
2023-01-15T14:56:52.836Z,97689.75
2023-01-15T15:00:03.909Z,97695.94
2023-01-15T15:03:18.504Z,97695.47
2023-01-15T15:06:22.977Z,97692.53
2023-01-15T15:09:44.012Z,97697.34
2023-01-15T15:12:53.631Z,97693.19
2023-01-15T15:16:07.063Z,97691.94
2023-01-15T15:19:18.264Z,97690.72
2023-01-15T15:22:28.884Z,97692.72
2023-01-15T15:25:39.425Z,97696.28
2023-01-15T15:28:43.072Z,97703.09
2023-01-15T15:31:49.648Z,97701.84
2023-01-15T15:34:59.287Z,97699.06
2023-01-15T15:38:06.716Z,97701.06
2023-01-15T15:41:14.079Z,97695.69
2023-01-15T15:44:44.910Z,97692.75
2023-01-15T15:48:05.932Z,97688.50
2023-01-15T15:51:31.426Z,97688.84
2023-01-15T15:54:34.795Z,97680.84
2023-01-15T15:57:41.094Z,97691.00
2023-01-15T16:00:46.828Z,97693.16
2023-01-15T16:03:51.177Z,97688.22
2023-01-15T16:06:55.244Z,97694.69
2023-01-15T16:10:01.980Z,97695.00
2023-01-15T16:13:14.185Z,97691.75
2023-01-15T16:16:20.862Z,97694.69
2023-01-15T16:19:27.800Z,97695.28
2023-01-15T16:22:31.758Z,97696.16
2023-01-15T16:25:39.148Z,97697.09
2023-01-15T16:28:50.344Z,97697.03
2023-01-15T16:31:58.569Z,97700.38
2023-01-15T16:35:07.334Z,97704.59
2023-01-15T16:38:21.388Z,97702.72
2023-01-15T16:41:32.319Z,97705.63
2023-01-15T16:44:44.356Z,97713.63
2023-01-15T16:48:11.879Z,97712.06
2023-01-15T16:51:38.968Z,97703.97
2023-01-15T16:54:47.568Z,97706.63
2023-01-15T16:58:32.444Z,97701.38
2023-01-15T17:01:42.333Z,97700.31
2023-01-15T17:04:46.644Z,97704.19
2023-01-15T17:07:54.252Z,97703.13
2023-01-15T17:11:00.207Z,97702.91
2023-01-15T17:14:12.431Z,97706.94
2023-01-15T17:17:25.036Z,97706.69
2023-01-15T17:20:33.932Z,97699.31
2023-01-15T17:23:42.491Z,97689.94
2023-01-15T17:26:46.993Z,97686.53
2023-01-15T17:29:50.567Z,97693.19
2023-01-15T17:32:56.297Z,97694.81
2023-01-15T17:36:01.404Z,97686.13
2023-01-15T17:39:05.542Z,97684.94
2023-01-15T17:42:15.564Z,97676.06
2023-01-15T17:45:21.945Z,97682.13
2023-01-15T17:48:28.010Z,97679.41
2023-01-15T17:51:31.780Z,97685.75
2023-01-15T17:54:52.647Z,97686.75
2023-01-15T17:58:13.859Z,97697.69
2023-01-15T18:01:38.108Z,97694.78
2023-01-15T18:05:05.116Z,97686.28
2023-01-15T18:08:11.409Z,97688.72
2023-01-15T18:11:15.315Z,97683.28
2023-01-15T18:14:18.929Z,97681.44
2023-01-15T18:17:22.867Z,97677.22
2023-01-15T18:20:27.813Z,97681.09
2023-01-15T18:23:35.337Z,97669.63
2023-01-15T18:26:39.656Z,97673.50
2023-01-15T18:29:43.758Z,97675.84
2023-01-15T18:32:47.120Z,97683.72
2023-01-15T18:36:03.379Z,97682.16
2023-01-15T18:39:07.265Z,97681.28
2023-01-15T18:42:29.203Z,97677.66
2023-01-15T18:45:50.053Z,97680.84
2023-01-15T18:48:53.790Z,97686.94
2023-01-15T18:52:15.919Z,97686.72
2023-01-15T18:55:21.366Z,97686.38
2023-01-15T18:58:24.944Z,97695.50
2023-01-15T19:01:29.136Z,97691.31
2023-01-15T19:04:32.849Z,97693.56
2023-01-15T19:07:38.126Z,97685.31
2023-01-15T19:10:41.691Z,97694.81
2023-01-15T19:14:05.882Z,97699.69
2023-01-15T19:17:32.134Z,97685.91
2023-01-15T19:20:36.037Z,97695.78
2023-01-15T19:23:40.941Z,97697.97
2023-01-15T19:26:45.108Z,97685.13
2023-01-15T19:29:48.710Z,97686.25
2023-01-15T19:32:52.586Z,97686.50
2023-01-15T19:35:56.203Z,97696.47
2023-01-15T19:39:03.888Z,97696.38
2023-01-15T19:42:25.010Z,97703.72
2023-01-15T19:45:46.143Z,97702.28
2023-01-15T19:49:06.657Z,97710.03
2023-01-15T19:52:28.091Z,97702.44
2023-01-15T19:55:34.290Z,97702.03
2023-01-15T19:58:38.204Z,97702.38
2023-01-15T20:01:41.662Z,97704.22
2023-01-15T20:04:46.718Z,97705.19
2023-01-15T20:07:50.255Z,97705.94
2023-01-15T20:10:55.489Z,97710.53
2023-01-15T20:13:59.166Z,97708.50
2023-01-15T20:17:03.395Z,97710.97
2023-01-15T20:20:08.040Z,97708.25
2023-01-15T20:23:12.438Z,97703.91
2023-01-15T20:26:18.227Z,97705.47
2023-01-15T20:29:22.594Z,97701.16
2023-01-15T20:32:27.698Z,97703.72
2023-01-15T20:35:32.400Z,97703.91
2023-01-15T20:38:35.941Z,97690.41
2023-01-15T20:41:59.784Z,97691.31
2023-01-15T20:45:08.424Z,97683.78
2023-01-15T20:48:29.693Z,97689.59
2023-01-15T20:51:36.548Z,97692.88
2023-01-15T20:54:42.833Z,97697.81
2023-01-15T20:57:51.424Z,97693.84
2023-01-15T21:00:56.700Z,97690.63
2023-01-15T21:04:00.355Z,97681.06
2023-01-15T21:07:04.514Z,97677.88
2023-01-15T21:10:11.561Z,97684.59
2023-01-15T21:13:16.793Z,97681.34
2023-01-15T21:16:20.365Z,97685.56
2023-01-15T21:19:25.384Z,97681.97
2023-01-15T21:22:30.725Z,97690.63
2023-01-15T21:25:34.567Z,97682.97
2023-01-15T21:28:39.720Z,97680.72
2023-01-15T21:31:44.792Z,97667.84
2023-01-15T21:34:49.764Z,97670.22
2023-01-15T21:37:53.683Z,97685.00
2023-01-15T21:40:57.526Z,97679.81
2023-01-15T21:44:20.456Z,97679.19
2023-01-15T21:47:24.381Z,97674.44
2023-01-15T21:50:28.313Z,97679.28
2023-01-15T21:53:33.262Z,97677.50
2023-01-15T21:56:40.027Z,97672.84
2023-01-15T21:59:45.036Z,97670.22
2023-01-15T22:02:49.401Z,97670.88
2023-01-15T22:05:53.615Z,97661.91
2023-01-15T22:08:57.811Z,97655.28
2023-01-15T22:12:01.225Z,97649.53
2023-01-15T22:15:08.329Z,97656.06
2023-01-15T22:18:11.995Z,97661.16
2023-01-15T22:21:16.162Z,97658.78
2023-01-15T22:24:20.460Z,97655.75
2023-01-15T22:27:24.752Z,97646.47
2023-01-15T22:30:29.826Z,97637.50
2023-01-15T22:33:33.715Z,97639.06
2023-01-15T22:36:39.942Z,97632.91
2023-01-15T22:39:43.999Z,97639.22
2023-01-15T22:42:48.836Z,97635.13
2023-01-15T22:45:54.126Z,97629.59
2023-01-15T22:48:57.806Z,97626.84
2023-01-15T22:52:01.992Z,97619.22
2023-01-15T22:55:07.224Z,97622.25
2023-01-15T22:58:11.056Z,97608.78
2023-01-15T23:01:16.237Z,97605.44
2023-01-15T23:04:23.390Z,97606.75
2023-01-15T23:07:27.018Z,97603.13
2023-01-15T23:10:31.502Z,97598.34
2023-01-15T23:13:37.974Z,97610.06
2023-01-15T23:16:44.059Z,97598.25
2023-01-15T23:19:47.616Z,97587.53
2023-01-15T23:22:51.946Z,97582.25
2023-01-15T23:25:55.595Z,97575.59
2023-01-15T23:29:01.117Z,97578.47
2023-01-15T23:32:06.587Z,97568.50
2023-01-15T23:35:11.657Z,97576.25
2023-01-15T23:38:16.221Z,97576.59
2023-01-15T23:41:45.087Z,97573.94
2023-01-15T23:45:06.255Z,97565.75
2023-01-15T23:48:11.946Z,97568.19
2023-01-15T23:51:15.485Z,97565.88
2023-01-15T23:54:19.970Z,97564.34
2023-01-15T23:57:23.860Z,97565.66
